createdAt,value
2018-11-07T00:00:09.287Z,99248.50
2018-11-07T00:02:35.493Z,99259.77
2018-11-07T00:05:02.808Z,99258.86
2018-11-07T00:09:59.624Z,99258.55
2018-11-07T00:12:27.394Z,99260.13
2018-11-07T00:14:54.890Z,99259.06
2018-11-07T00:17:21.206Z,99256.63
2018-11-07T00:19:47.560Z,99267.11
2018-11-07T00:22:13.687Z,99271.69
2018-11-07T00:24:39.805Z,99268.34
2018-11-07T00:27:05.931Z,99269.69
2018-11-07T00:29:32.207Z,99278.08
2018-11-07T00:31:58.368Z,99272.73
2018-11-07T00:34:24.480Z,99274.78
2018-11-07T00:36:51.812Z,99276.23
2018-11-07T00:39:19.670Z,99280.08
2018-11-07T00:41:45.942Z,99278.52
2018-11-07T00:44:13.888Z,99274.00
2018-11-07T00:46:42.915Z,99286.67
2018-11-07T00:49:11.281Z,99304.15
2018-11-07T00:51:39.642Z,99300.05
2018-11-07T00:54:06.636Z,99295.31
2018-11-07T00:56:32.957Z,99302.33
2018-11-07T01:01:56.156Z,99302.47
2018-11-07T01:07:20.657Z,99305.81
2018-11-07T01:09:47.405Z,99306.80
2018-11-07T01:12:16.636Z,99298.20
2018-11-07T01:14:43.197Z,99298.42
2018-11-07T01:17:11.513Z,99295.00
2018-11-07T01:19:37.743Z,99293.42
2018-11-07T01:22:05.078Z,99292.42
2018-11-07T01:24:31.187Z,99294.98
2018-11-07T01:26:57.330Z,99287.13
2018-11-07T01:29:26.908Z,99304.42
2018-11-07T01:31:52.940Z,99302.81
2018-11-07T01:34:20.135Z,99299.60
2018-11-07T01:36:46.300Z,99298.08
2018-11-07T01:39:12.437Z,99305.23
2018-11-07T01:41:38.567Z,99303.17
2018-11-07T01:44:04.707Z,99298.66
2018-11-07T01:46:31.541Z,99297.60
2018-11-07T01:48:58.566Z,99298.58
2018-11-07T01:51:24.661Z,99286.92
2018-11-07T01:53:50.735Z,99284.37
2018-11-07T01:56:18.864Z,99293.58
2018-11-07T01:58:45.006Z,99290.86
2018-11-07T02:01:11.812Z,99285.17
2018-11-07T02:03:38.230Z,99283.10
2018-11-07T02:06:05.115Z,99279.08
2018-11-07T02:08:33.192Z,99278.31
2018-11-07T02:10:59.278Z,99289.12
2018-11-07T02:13:26.169Z,99282.31
2018-11-07T02:15:52.353Z,99279.81
2018-11-07T02:18:18.470Z,99274.81
2018-11-07T02:23:15.423Z,99286.03
2018-11-07T02:25:41.838Z,99279.86
2018-11-07T02:28:07.986Z,99273.28
2018-11-07T02:38:10.155Z,99290.25
2018-11-07T02:40:36.441Z,99286.42
2018-11-07T02:43:03.176Z,99290.18
2018-11-07T02:45:29.416Z,99296.89
2018-11-07T02:47:55.538Z,99293.91
2018-11-07T02:50:21.646Z,99290.97
2018-11-07T02:55:32.559Z,99302.80
2018-11-07T02:57:59.851Z,99304.59
2018-11-07T03:00:29.002Z,99309.16
2018-11-07T03:02:55.146Z,99308.95
2018-11-07T03:05:21.256Z,99311.22
2018-11-07T03:10:21.843Z,99311.81
2018-11-07T03:12:47.966Z,99282.28
2018-11-07T03:15:14.030Z,99313.28
2018-11-07T03:17:40.113Z,99314.09
2018-11-07T03:20:06.145Z,99322.59
2018-11-07T03:22:32.173Z,99330.24
2018-11-07T03:24:58.196Z,99324.72
2018-11-07T03:27:24.185Z,99325.86
2018-11-07T03:29:50.208Z,99327.45
2018-11-07T03:32:16.272Z,99327.88
2018-11-07T03:34:42.298Z,99326.38
2018-11-07T03:37:08.319Z,99326.09
2018-11-07T03:39:34.379Z,99329.21
2018-11-07T03:42:02.255Z,99331.85
2018-11-07T03:44:28.286Z,99329.97
2018-11-07T03:46:54.329Z,99326.34
2018-11-07T03:49:21.893Z,99329.07
2018-11-07T03:51:47.980Z,99328.08
2018-11-07T03:54:14.039Z,99326.05
2018-11-07T03:56:43.163Z,99326.43
2018-11-07T03:59:09.305Z,99325.25
2018-11-07T04:01:35.977Z,99322.05
2018-11-07T04:04:02.504Z,99321.70
2018-11-07T04:06:28.539Z,99325.39
2018-11-07T04:08:56.094Z,99324.06
2018-11-07T04:11:22.185Z,99325.39
2018-11-07T04:13:48.214Z,99321.62
2018-11-07T04:16:14.270Z,99318.22
2018-11-07T04:18:41.579Z,99317.08
2018-11-07T04:21:07.631Z,99318.88
2018-11-07T04:23:33.692Z,99324.30
2018-11-07T04:52:16.762Z,99329.40
2018-11-07T04:59:52.966Z,99346.59
2018-11-07T05:02:20.104Z,99337.38
2018-11-07T05:07:29.498Z,99338.97
2018-11-07T05:12:32.349Z,99342.12
2018-11-07T05:15:03.102Z,99340.97
2018-11-07T05:23:25.211Z,99356.01
2018-11-07T05:28:37.980Z,99359.73
2018-11-07T05:31:07.451Z,99367.00
2018-11-07T05:33:34.739Z,99357.54
2018-11-07T05:36:02.179Z,99367.09
2018-11-07T05:38:31.906Z,99371.55
2018-11-07T05:41:02.068Z,99370.53
2018-11-07T05:43:28.465Z,99374.43
2018-11-07T05:45:55.622Z,99376.22
2018-11-07T05:48:21.851Z,99378.08
2018-11-07T05:50:48.166Z,99385.00
2018-11-07T05:53:17.988Z,99385.47
2018-11-07T05:55:44.310Z,99385.55
2018-11-07T05:58:13.723Z,99390.56
2018-11-07T06:00:41.934Z,99387.20
2018-11-07T06:03:09.978Z,99391.75
2018-11-07T06:05:38.976Z,99387.42
2018-11-07T06:08:09.230Z,99395.02
2018-11-07T06:10:37.271Z,99395.14
2018-11-07T06:13:05.376Z,99396.38
2018-11-07T06:15:32.291Z,99398.03
2018-11-07T06:17:59.803Z,99400.16
2018-11-07T06:20:25.984Z,99407.03
2018-11-07T06:22:54.507Z,99408.08
2018-11-07T06:25:26.215Z,99406.55
2018-11-07T06:27:53.203Z,99405.73
2018-11-07T06:30:20.899Z,99414.52
2018-11-07T06:32:47.656Z,99416.10
2018-11-07T06:35:15.688Z,99414.20
2018-11-07T06:37:41.956Z,99415.01
2018-11-07T06:40:10.154Z,99422.95
2018-11-07T06:42:37.222Z,99421.13
2018-11-07T06:45:07.089Z,99420.20
2018-11-07T06:47:35.911Z,99418.80
2018-11-07T06:50:02.207Z,99418.55
2018-11-07T06:52:30.600Z,99423.86
2018-11-07T06:54:58.236Z,99425.05
2018-11-07T06:57:27.559Z,99426.80
2018-11-07T07:05:02.575Z,99420.67
2018-11-07T07:07:30.520Z,99416.04
2018-11-07T07:15:04.324Z,99416.77
2018-11-07T07:17:31.437Z,99420.84
2018-11-07T07:19:57.513Z,99425.69
2018-11-07T07:22:23.751Z,99423.70
2018-11-07T07:24:49.866Z,99426.72
2018-11-07T07:27:17.026Z,99423.00
2018-11-07T07:29:43.904Z,99427.20
2018-11-07T07:32:10.038Z,99428.52
2018-11-07T07:34:38.266Z,99429.98
2018-11-07T07:37:04.418Z,99431.05
2018-11-07T07:39:31.865Z,99426.25
2018-11-07T07:41:57.963Z,99430.27
2018-11-07T07:44:24.241Z,99429.06
2018-11-07T07:46:50.394Z,99431.16
2018-11-07T07:49:16.646Z,99430.37
2018-11-07T07:51:43.453Z,99435.00
2018-11-07T07:54:09.622Z,99431.16
2018-11-07T07:56:36.620Z,99440.62
2018-11-07T07:59:02.804Z,99432.66
2018-11-07T08:01:28.927Z,99438.97
2018-11-07T08:03:55.066Z,99440.30
2018-11-07T08:06:21.175Z,99440.22
2018-11-07T08:08:47.322Z,99446.66
2018-11-07T08:11:13.482Z,99437.55
2018-11-07T08:13:39.711Z,99438.81
2018-11-07T08:16:05.886Z,99432.20
2018-11-07T08:18:33.733Z,99437.45
2018-11-07T08:20:59.890Z,99436.98
2018-11-07T08:23:26.070Z,99435.53
2018-11-07T08:25:52.134Z,99440.71
2018-11-07T08:28:18.213Z,99442.42
2018-11-07T08:30:44.397Z,99435.97
2018-11-07T08:33:10.545Z,99436.55
2018-11-07T08:35:36.770Z,99437.39
2018-11-07T08:38:03.390Z,99447.98
2018-11-07T08:40:29.524Z,99450.95
2018-11-07T08:42:55.657Z,99442.45
2018-11-07T08:45:21.823Z,99447.75
2018-11-07T08:47:47.996Z,99446.06
2018-11-07T08:50:14.106Z,99446.06
2018-11-07T08:52:44.266Z,99440.66
2018-11-07T08:55:10.585Z,99450.38
2018-11-07T08:57:36.786Z,99452.26
2018-11-07T09:00:06.652Z,99453.36
2018-11-07T09:02:32.746Z,99457.20
2018-11-07T09:04:58.968Z,99454.17
2018-11-07T09:07:25.090Z,99461.48
2018-11-07T09:09:51.157Z,99461.89
2018-11-07T09:12:17.350Z,99462.84
2018-11-07T09:14:43.503Z,99475.91
2018-11-07T09:17:09.674Z,99468.73
2018-11-07T09:19:35.854Z,99468.91
2018-11-07T09:22:02.048Z,99467.03
2018-11-07T09:24:28.254Z,99472.94
2018-11-07T09:26:54.337Z,99462.95
2018-11-07T09:29:20.530Z,99462.14
2018-11-07T09:31:46.620Z,99468.73
2018-11-07T09:34:12.741Z,99477.14
2018-11-07T09:36:38.887Z,99481.53
2018-11-07T09:39:05.142Z,99481.77
2018-11-07T09:41:31.261Z,99486.37
2018-11-07T09:43:57.389Z,99467.94
2018-11-07T09:46:23.494Z,99478.20
2018-11-07T09:48:49.650Z,99476.92
2018-11-07T09:51:15.854Z,99485.92
2018-11-07T09:53:41.998Z,99482.26
2018-11-07T09:56:08.186Z,99485.17
2018-11-07T09:58:34.333Z,99483.21
2018-11-07T10:01:00.489Z,99481.05
2018-11-07T10:03:26.543Z,99481.95
2018-11-07T10:05:52.670Z,99484.08
2018-11-07T10:08:18.824Z,99479.48
2018-11-07T10:10:44.952Z,99481.70
2018-11-07T10:13:11.090Z,99483.21
2018-11-07T10:15:37.264Z,99479.38
2018-11-07T10:18:03.351Z,99481.33
2018-11-07T10:20:29.453Z,99473.08
2018-11-07T10:22:55.514Z,99475.75
2018-11-07T10:25:21.682Z,99475.27
2018-11-07T10:27:48.144Z,99475.49
2018-11-07T10:30:14.319Z,99474.52
2018-11-07T10:32:40.095Z,99472.52
2018-11-07T10:35:06.243Z,99468.69
2018-11-07T10:37:33.453Z,99472.94
2018-11-07T10:39:59.687Z,99469.95
2018-11-07T10:42:25.816Z,99464.45
2018-11-07T10:44:52.656Z,99457.95
2018-11-07T10:47:18.815Z,99455.98
2018-11-07T10:49:45.022Z,99452.14
2018-11-07T10:52:11.105Z,99463.75
2018-11-07T10:54:39.334Z,99465.27
2018-11-07T10:57:05.464Z,99468.29
2018-11-07T10:59:31.540Z,99462.58
2018-11-07T11:01:57.618Z,99461.30
2018-11-07T11:04:23.738Z,99464.27
2018-11-07T11:06:49.947Z,99462.20
2018-11-07T11:09:16.117Z,99454.90
2018-11-07T11:11:42.221Z,99462.99
2018-11-07T11:14:08.539Z,99463.72
2018-11-07T11:16:34.797Z,99464.09
2018-11-07T11:19:01.017Z,99476.16
2018-11-07T11:21:27.279Z,99466.59
2018-11-07T11:23:53.772Z,99467.09
2018-11-07T11:26:19.956Z,99466.48
2018-11-07T11:28:46.068Z,99466.36
2018-11-07T11:31:12.712Z,99479.80
2018-11-07T11:33:39.118Z,99482.33
2018-11-07T11:41:10.681Z,99490.53
2018-11-07T11:43:37.625Z,99480.97
2018-11-07T11:46:05.580Z,99478.92
2018-11-07T11:48:31.724Z,99479.52
2018-11-07T11:50:58.023Z,99488.73
2018-11-07T11:53:24.145Z,99481.66
2018-11-07T11:55:50.276Z,99478.48
2018-11-07T11:58:18.670Z,99479.52
2018-11-07T12:00:44.818Z,99479.02
2018-11-07T12:03:10.922Z,99472.77
2018-11-07T12:05:37.045Z,99477.16
2018-11-07T12:08:03.298Z,99477.94
2018-11-07T12:10:29.569Z,99471.59
2018-11-07T12:12:59.609Z,99479.45
2018-11-07T12:15:25.895Z,99475.78
2018-11-07T12:17:52.715Z,99483.06
2018-11-07T12:20:19.807Z,99482.50
2018-11-07T12:22:45.868Z,99487.14
2018-11-07T12:25:12.065Z,99480.25
2018-11-07T12:27:38.292Z,99490.30
2018-11-07T12:30:04.383Z,99479.50
2018-11-07T12:32:30.572Z,99491.31
2018-11-07T12:34:56.739Z,99490.22
2018-11-07T13:00:09.906Z,99489.88
2018-11-07T13:02:36.131Z,99495.39
2018-11-07T13:05:02.221Z,99494.51
2018-11-07T13:07:28.296Z,99501.94
2018-11-07T13:09:54.414Z,99498.66
2018-11-07T13:12:20.563Z,99507.20
2018-11-07T13:14:46.740Z,99497.83
2018-11-07T13:17:13.461Z,99493.09
2018-11-07T13:19:39.718Z,99501.94
2018-11-07T13:22:08.797Z,99496.75
2018-11-07T13:24:34.848Z,99491.22
2018-11-07T13:27:03.113Z,99491.55
2018-11-07T13:29:30.467Z,99494.19
2018-11-07T13:31:56.574Z,99494.12
2018-11-07T13:43:36.811Z,99498.94
2018-11-07T13:46:03.251Z,99497.09
2018-11-07T13:56:28.256Z,99496.69
2018-11-07T14:05:41.951Z,99494.83
2018-11-07T14:19:12.038Z,99507.52
2018-11-07T15:21:31.689Z,99529.75
2018-11-07T15:23:58.790Z,99517.97
2018-11-07T15:26:31.058Z,99527.98
2018-11-07T15:46:39.530Z,99531.49
2018-11-07T15:52:08.925Z,99534.54
2018-11-07T15:54:37.393Z,99532.88
2018-11-07T15:57:04.753Z,99539.20
2018-11-07T15:59:31.589Z,99537.70
2018-11-07T16:29:10.285Z,99563.45
2018-11-07T16:34:16.832Z,99569.09
2018-11-07T16:36:45.357Z,99569.73
2018-11-07T16:43:02.697Z,99575.69
2018-11-07T16:45:28.927Z,99580.75
2018-11-07T16:55:31.722Z,99588.60
2018-11-07T16:57:58.010Z,99587.19
2018-11-07T17:03:34.939Z,99578.34
2018-11-07T17:06:01.005Z,99578.39
2018-11-07T17:08:27.111Z,99580.38
2018-11-07T17:10:53.250Z,99575.60
2018-11-07T17:13:19.336Z,99581.89
2018-11-07T17:15:45.398Z,99581.03
2018-11-07T17:18:11.469Z,99576.78
2018-11-07T17:20:38.390Z,99584.81
2018-11-07T17:23:05.874Z,99586.28
2018-11-07T17:25:32.095Z,99586.90
2018-11-07T17:27:58.411Z,99587.38
2018-11-07T17:30:27.421Z,99582.61
2018-11-07T17:32:53.731Z,99584.11
2018-11-07T17:35:19.887Z,99584.91
2018-11-07T17:40:30.128Z,99588.56
2018-11-07T17:45:34.748Z,99588.84
2018-11-07T17:48:07.444Z,99591.68
2018-11-07T17:50:33.432Z,99591.77
2018-11-07T17:55:34.274Z,99592.91
2018-11-07T18:03:08.412Z,99601.11
2018-11-07T18:08:05.928Z,99596.62
2018-11-07T18:10:34.801Z,99596.36
2018-11-07T18:13:01.791Z,99602.44
2018-11-07T18:15:28.672Z,99604.09
2018-11-07T18:17:56.210Z,99597.91
2018-11-07T18:20:31.235Z,99597.82
2018-11-07T18:23:01.291Z,99599.33
2018-11-07T18:25:27.475Z,99605.32
2018-11-07T18:27:54.265Z,99603.25
2018-11-07T18:30:21.216Z,99607.93
2018-11-07T18:32:47.404Z,99594.11
2018-11-07T18:35:14.697Z,99593.39
2018-11-07T18:37:41.378Z,99595.98
2018-11-07T18:40:07.978Z,99601.93
2018-11-07T18:42:35.056Z,99605.89
2018-11-07T18:45:03.886Z,99614.34
2018-11-07T18:47:32.246Z,99612.56
2018-11-07T18:49:58.511Z,99612.52
2018-11-07T19:07:38.813Z,99624.63
2018-11-07T19:12:38.232Z,99627.05
2018-11-07T19:15:04.440Z,99610.94
2018-11-07T19:22:33.324Z,99638.59
2018-11-07T19:25:01.160Z,99639.52
2018-11-07T19:35:10.006Z,99653.11
2018-11-07T19:37:39.662Z,99652.14
2018-11-07T19:40:06.036Z,99645.80
2018-11-07T19:52:40.921Z,99648.88
2018-11-07T19:55:07.186Z,99650.04
2018-11-07T19:57:33.258Z,99660.70
2018-11-07T19:59:59.596Z,99654.79
2018-11-07T20:02:26.022Z,99653.30
2018-11-07T20:04:52.627Z,99662.05
2018-11-07T20:07:20.203Z,99670.20
2018-11-07T20:09:46.357Z,99669.94
2018-11-07T20:12:12.406Z,99670.55
2018-11-07T20:14:38.458Z,99670.67
2018-11-07T20:17:04.589Z,99680.80
2018-11-07T20:19:30.554Z,99674.44
2018-11-07T20:21:56.563Z,99676.05
2018-11-07T20:24:22.587Z,99671.84
2018-11-07T20:26:50.762Z,99675.46
2018-11-07T20:29:16.831Z,99673.16
2018-11-07T20:31:42.904Z,99677.04
2018-11-07T20:34:08.964Z,99686.70
2018-11-07T20:36:34.987Z,99688.33
2018-11-07T20:39:01.084Z,99685.17
2018-11-07T20:43:58.834Z,99693.95
2018-11-07T20:46:25.814Z,99703.52
2018-11-07T20:48:51.901Z,99700.30
2018-11-07T20:51:17.891Z,99701.19
2018-11-07T20:53:43.956Z,99710.39
2018-11-07T20:58:41.596Z,99717.42
2018-11-07T21:03:44.343Z,99723.66
2018-11-07T21:06:11.497Z,99727.64
2018-11-07T21:08:38.658Z,99729.63
2018-11-07T21:11:06.738Z,99733.91
2018-11-07T21:13:32.800Z,99736.56
2018-11-07T21:15:58.809Z,99737.47
2018-11-07T21:18:24.867Z,99737.19
2018-11-07T21:20:50.949Z,99737.69
2018-11-07T21:23:17.048Z,99744.08
2018-11-07T21:25:43.042Z,99745.11
2018-11-07T21:28:09.119Z,99750.20
2018-11-07T21:30:35.187Z,99765.09
2018-11-07T21:33:01.209Z,99757.27
2018-11-07T21:35:27.224Z,99761.72
2018-11-07T21:37:53.284Z,99762.19
2018-11-07T21:40:21.051Z,99761.83
2018-11-07T21:42:47.168Z,99761.72
2018-11-07T21:45:13.107Z,99764.78
2018-11-07T21:47:39.058Z,99763.84
2018-11-07T21:50:05.039Z,99767.11
2018-11-07T21:52:32.244Z,99766.52
2018-11-07T21:55:00.185Z,99766.89
2018-11-07T21:57:26.233Z,99767.45
2018-11-07T21:59:52.194Z,99768.90
2018-11-07T22:02:19.268Z,99775.91
2018-11-07T22:04:45.254Z,99773.65
2018-11-07T22:07:11.227Z,99776.25
2018-11-07T22:09:37.199Z,99775.85
2018-11-07T22:12:03.192Z,99778.59
2018-11-07T22:14:29.158Z,99781.00
2018-11-07T22:16:55.105Z,99784.30
2018-11-07T22:19:21.105Z,99783.66
2018-11-07T22:21:47.069Z,99783.27
2018-11-07T22:24:13.190Z,99792.45
2018-11-07T22:26:39.079Z,99788.09
2018-11-07T22:29:05.061Z,99790.84
2018-11-07T22:31:31.093Z,99788.36
2018-11-07T22:33:57.060Z,99792.00
2018-11-07T22:36:23.082Z,99797.67
2018-11-07T22:38:49.088Z,99803.92
2018-11-07T22:41:15.086Z,99801.38
2018-11-07T22:43:41.087Z,99800.03
2018-11-07T22:46:07.083Z,99795.79
2018-11-07T22:48:33.108Z,99802.97
2018-11-07T22:50:59.896Z,99803.45
2018-11-07T22:53:25.898Z,99798.50
2018-11-07T22:55:51.873Z,99800.85
2018-11-07T22:58:17.899Z,99814.20
2018-11-07T23:00:43.918Z,99813.62
2018-11-07T23:03:09.896Z,99820.72
2018-11-07T23:05:35.931Z,99826.39
2018-11-07T23:08:01.936Z,99830.35
2018-11-07T23:10:27.922Z,99828.71
2018-11-07T23:12:53.918Z,99828.55
2018-11-07T23:15:19.917Z,99826.94
2018-11-07T23:17:45.933Z,99831.66
2018-11-07T23:20:11.989Z,99838.55
2018-11-07T23:22:38.968Z,99842.89
2018-11-07T23:25:04.951Z,99839.42
2018-11-07T23:27:31.960Z,99845.34
2018-11-07T23:29:57.933Z,99839.82
2018-11-07T23:32:25.276Z,99843.34
2018-11-07T23:34:51.262Z,99851.11
2018-11-07T23:37:17.237Z,99847.29
2018-11-07T23:39:43.274Z,99842.20
2018-11-07T23:42:09.277Z,99844.08
2018-11-07T23:44:35.292Z,99845.67
2018-11-07T23:47:01.352Z,99848.22
2018-11-07T23:49:27.427Z,99851.09
2018-11-07T23:51:53.457Z,99849.28
2018-11-07T23:54:19.480Z,99842.88
2018-11-07T23:56:45.470Z,99837.83
2018-11-07T23:59:11.528Z,99855.59
